sensor_id;sensor_type;location;lat;lon;timestamp;temperature;humidity
53282;DHT22;39167;52.794;6.892;2022-12-24T00:02:08;7.20;99.90
53282;DHT22;39167;52.794;6.892;2022-12-24T00:04:33;7.30;99.90
53282;DHT22;39167;52.794;6.892;2022-12-24T00:06:59;7.30;99.90
53282;DHT22;39167;52.794;6.892;2022-12-24T00:09:25;7.40;99.90
53282;DHT22;39167;52.794;6.892;2022-12-24T00:11:50;7.40;99.90
53282;DHT22;39167;52.794;6.892;2022-12-24T00:14:16;7.50;99.90
53282;DHT22;39167;52.794;6.892;2022-12-24T00:16:42;7.60;99.90
53282;DHT22;39167;52.794;6.892;2022-12-24T00:19:07;7.70;99.90
53282;DHT22;39167;52.794;6.892;2022-12-24T00:21:33;7.70;99.90
53282;DHT22;39167;52.794;6.892;2022-12-24T00:23:59;7.80;99.90
53282;DHT22;39167;52.794;6.892;2022-12-24T00:26:24;7.80;99.90
53282;DHT22;39167;52.794;6.892;2022-12-24T00:28:50;7.80;99.90
53282;DHT22;39167;52.794;6.892;2022-12-24T00:31:17;8.10;99.90
53282;DHT22;39167;52.794;6.892;2022-12-24T00:33:45;7.90;99.90
53282;DHT22;39167;52.794;6.892;2022-12-24T00:36:11;7.90;99.90
53282;DHT22;39167;52.794;6.892;2022-12-24T00:38:37;7.90;99.90
53282;DHT22;39167;52.794;6.892;2022-12-24T00:41:06;8.00;99.90
53282;DHT22;39167;52.794;6.892;2022-12-24T00:44:09;8.00;99.90
53282;DHT22;39167;52.794;6.892;2022-12-24T00:46:36;8.00;99.90
53282;DHT22;39167;52.794;6.892;2022-12-24T00:49:03;8.00;99.90
53282;DHT22;39167;52.794;6.892;2022-12-24T00:51:29;8.00;99.90
53282;DHT22;39167;52.794;6.892;2022-12-24T00:53:55;8.00;99.90
53282;DHT22;39167;52.794;6.892;2022-12-24T00:56:22;8.00;99.90
53282;DHT22;39167;52.794;6.892;2022-12-24T00:58:47;8.00;99.90
53282;DHT22;39167;52.794;6.892;2022-12-24T01:01:14;8.10;99.90
53282;DHT22;39167;52.794;6.892;2022-12-24T01:03:40;8.10;99.90
53282;DHT22;39167;52.794;6.892;2022-12-24T01:06:17;8.10;99.90
53282;DHT22;39167;52.794;6.892;2022-12-24T01:08:43;8.10;99.90
53282;DHT22;39167;52.794;6.892;2022-12-24T01:11:10;8.10;99.90
53282;DHT22;39167;52.794;6.892;2022-12-24T01:13:37;8.20;99.90
53282;DHT22;39167;52.794;6.892;2022-12-24T01:16:03;8.20;99.90
53282;DHT22;39167;52.794;6.892;2022-12-24T01:18:29;8.20;99.90
53282;DHT22;39167;52.794;6.892;2022-12-24T01:20:59;8.20;99.90
53282;DHT22;39167;52.794;6.892;2022-12-24T01:23:25;8.20;99.90
53282;DHT22;39167;52.794;6.892;2022-12-24T01:25:52;8.20;99.90
53282;DHT22;39167;52.794;6.892;2022-12-24T01:28:18;8.20;99.90
53282;DHT22;39167;52.794;6.892;2022-12-24T01:30:44;8.20;99.90
53282;DHT22;39167;52.794;6.892;2022-12-24T01:33:10;8.20;99.90
53282;DHT22;39167;52.794;6.892;2022-12-24T01:35:41;8.30;99.90
53282;DHT22;39167;52.794;6.892;2022-12-24T01:38:09;8.30;99.90
53282;DHT22;39167;52.794;6.892;2022-12-24T01:40:40;8.30;99.90
53282;DHT22;39167;52.794;6.892;2022-12-24T01:43:27;8.30;99.90
53282;DHT22;39167;52.794;6.892;2022-12-24T01:46:02;8.30;99.90
53282;DHT22;39167;52.794;6.892;2022-12-24T01:48:44;8.30;99.90
53282;DHT22;39167;52.794;6.892;2022-12-24T01:51:33;8.30;99.90
53282;DHT22;39167;52.794;6.892;2022-12-24T01:54:10;8.30;99.90
53282;DHT22;39167;52.794;6.892;2022-12-24T01:56:46;8.30;99.90
53282;DHT22;39167;52.794;6.892;2022-12-24T01:59:15;8.30;99.90
53282;DHT22;39167;52.794;6.892;2022-12-24T02:01:45;8.30;99.90
53282;DHT22;39167;52.794;6.892;2022-12-24T02:06:52;8.30;99.90
53282;DHT22;39167;52.794;6.892;2022-12-24T02:09:18;8.30;99.90
53282;DHT22;39167;52.794;6.892;2022-12-24T02:11:44;8.30;99.90
53282;DHT22;39167;52.794;6.892;2022-12-24T02:14:12;8.40;99.90
53282;DHT22;39167;52.794;6.892;2022-12-24T02:16:56;8.40;99.90
53282;DHT22;39167;52.794;6.892;2022-12-24T02:28:45;8.40;99.90
53282;DHT22;39167;52.794;6.892;2022-12-24T02:31:22;8.40;99.90
53282;DHT22;39167;52.794;6.892;2022-12-24T02:33:57;8.40;99.90
53282;DHT22;39167;52.794;6.892;2022-12-24T02:36:34;8.80;99.90
53282;DHT22;39167;52.794;6.892;2022-12-24T02:39:04;8.40;99.90
53282;DHT22;39167;52.794;6.892;2022-12-24T02:41:36;8.40;99.90
53282;DHT22;39167;52.794;6.892;2022-12-24T02:44:26;8.40;99.90
53282;DHT22;39167;52.794;6.892;2022-12-24T02:46:52;8.40;99.90
53282;DHT22;39167;52.794;6.892;2022-12-24T02:49:19;8.40;99.90
53282;DHT22;39167;52.794;6.892;2022-12-24T02:51:45;8.40;99.90
53282;DHT22;39167;52.794;6.892;2022-12-24T02:54:11;8.40;99.90
53282;DHT22;39167;52.794;6.892;2022-12-24T02:57:07;8.40;99.90
53282;DHT22;39167;52.794;6.892;2022-12-24T03:08:13;8.40;99.90
53282;DHT22;39167;52.794;6.892;2022-12-24T03:10:59;8.40;99.90
53282;DHT22;39167;52.794;6.892;2022-12-24T03:13:27;8.40;99.90
53282;DHT22;39167;52.794;6.892;2022-12-24T03:15:53;8.50;99.90
53282;DHT22;39167;52.794;6.892;2022-12-24T03:18:25;8.50;99.90
53282;DHT22;39167;52.794;6.892;2022-12-24T03:21:01;8.50;99.90
53282;DHT22;39167;52.794;6.892;2022-12-24T03:23:28;8.50;99.90
53282;DHT22;39167;52.794;6.892;2022-12-24T03:25:54;8.40;99.90
53282;DHT22;39167;52.794;6.892;2022-12-24T03:28:24;8.40;99.90
53282;DHT22;39167;52.794;6.892;2022-12-24T03:30:51;8.40;99.90
53282;DHT22;39167;52.794;6.892;2022-12-24T03:33:17;8.40;99.90
53282;DHT22;39167;52.794;6.892;2022-12-24T03:35:43;8.40;99.90
53282;DHT22;39167;52.794;6.892;2022-12-24T03:38:09;8.40;99.90
53282;DHT22;39167;52.794;6.892;2022-12-24T03:40:35;8.40;99.90
53282;DHT22;39167;52.794;6.892;2022-12-24T03:43:01;8.40;99.90
53282;DHT22;39167;52.794;6.892;2022-12-24T03:45:26;8.40;99.90
53282;DHT22;39167;52.794;6.892;2022-12-24T03:47:52;8.50;99.90
53282;DHT22;39167;52.794;6.892;2022-12-24T03:50:18;8.50;99.90
53282;DHT22;39167;52.794;6.892;2022-12-24T03:52:43;8.50;99.90
53282;DHT22;39167;52.794;6.892;2022-12-24T03:55:09;8.50;99.90
53282;DHT22;39167;52.794;6.892;2022-12-24T03:57:35;8.50;99.90
53282;DHT22;39167;52.794;6.892;2022-12-24T04:00:01;8.50;99.90
53282;DHT22;39167;52.794;6.892;2022-12-24T04:02:27;8.50;99.90
53282;DHT22;39167;52.794;6.892;2022-12-24T04:04:53;8.60;99.90
53282;DHT22;39167;52.794;6.892;2022-12-24T04:07:19;8.50;99.90
53282;DHT22;39167;52.794;6.892;2022-12-24T04:09:44;8.50;99.90
53282;DHT22;39167;52.794;6.892;2022-12-24T04:12:10;8.50;99.90
53282;DHT22;39167;52.794;6.892;2022-12-24T04:14:36;8.50;99.90
53282;DHT22;39167;52.794;6.892;2022-12-24T04:17:01;8.50;99.90
53282;DHT22;39167;52.794;6.892;2022-12-24T04:19:27;8.50;99.90
53282;DHT22;39167;52.794;6.892;2022-12-24T04:21:53;8.50;99.90
53282;DHT22;39167;52.794;6.892;2022-12-24T04:24:18;8.50;99.90
53282;DHT22;39167;52.794;6.892;2022-12-24T04:26:44;8.60;99.90
53282;DHT22;39167;52.794;6.892;2022-12-24T04:29:10;8.60;99.90
53282;DHT22;39167;52.794;6.892;2022-12-24T04:31:36;8.50;99.90
53282;DHT22;39167;52.794;6.892;2022-12-24T04:34:01;8.50;99.90
53282;DHT22;39167;52.794;6.892;2022-12-24T04:36:27;8.60;99.90
53282;DHT22;39167;52.794;6.892;2022-12-24T04:38:53;8.50;99.90
53282;DHT22;39167;52.794;6.892;2022-12-24T04:41:20;8.60;99.90
53282;DHT22;39167;52.794;6.892;2022-12-24T04:43:47;8.60;99.90
53282;DHT22;39167;52.794;6.892;2022-12-24T04:46:18;8.50;99.90
53282;DHT22;39167;52.794;6.892;2022-12-24T04:48:46;8.60;99.90
53282;DHT22;39167;52.794;6.892;2022-12-24T04:51:13;8.60;99.90
53282;DHT22;39167;52.794;6.892;2022-12-24T04:53:40;8.60;99.90
53282;DHT22;39167;52.794;6.892;2022-12-24T04:56:20;8.50;99.90
53282;DHT22;39167;52.794;6.892;2022-12-24T04:58:46;8.50;99.90
53282;DHT22;39167;52.794;6.892;2022-12-24T05:01:18;8.50;99.90
53282;DHT22;39167;52.794;6.892;2022-12-24T05:03:44;8.50;99.90
53282;DHT22;39167;52.794;6.892;2022-12-24T05:06:12;8.50;99.90
53282;DHT22;39167;52.794;6.892;2022-12-24T05:08:38;8.50;99.90
53282;DHT22;39167;52.794;6.892;2022-12-24T05:11:05;8.50;99.90
53282;DHT22;39167;52.794;6.892;2022-12-24T05:13:31;8.50;99.90
53282;DHT22;39167;52.794;6.892;2022-12-24T05:15:57;8.60;99.90
53282;DHT22;39167;52.794;6.892;2022-12-24T05:18:23;8.50;99.90
53282;DHT22;39167;52.794;6.892;2022-12-24T05:20:49;8.60;99.90
53282;DHT22;39167;52.794;6.892;2022-12-24T05:23:20;8.60;99.90
53282;DHT22;39167;52.794;6.892;2022-12-24T05:26:17;8.60;99.90
53282;DHT22;39167;52.794;6.892;2022-12-24T05:28:53;8.60;99.90
53282;DHT22;39167;52.794;6.892;2022-12-24T05:31:20;8.60;99.90
53282;DHT22;39167;52.794;6.892;2022-12-24T05:33:47;8.60;99.90
53282;DHT22;39167;52.794;6.892;2022-12-24T05:36:13;8.60;99.90
53282;DHT22;39167;52.794;6.892;2022-12-24T05:38:39;8.60;99.90
53282;DHT22;39167;52.794;6.892;2022-12-24T05:41:06;8.60;99.90
53282;DHT22;39167;52.794;6.892;2022-12-24T05:43:34;8.60;99.90
53282;DHT22;39167;52.794;6.892;2022-12-24T05:46:02;8.60;99.90
53282;DHT22;39167;52.794;6.892;2022-12-24T05:48:28;8.60;99.90
53282;DHT22;39167;52.794;6.892;2022-12-24T05:50:54;8.60;99.90
53282;DHT22;39167;52.794;6.892;2022-12-24T05:53:20;8.60;99.90
53282;DHT22;39167;52.794;6.892;2022-12-24T05:55:47;8.60;99.90
53282;DHT22;39167;52.794;6.892;2022-12-24T05:58:12;8.60;99.90
53282;DHT22;39167;52.794;6.892;2022-12-24T06:00:38;8.60;99.90
53282;DHT22;39167;52.794;6.892;2022-12-24T06:03:04;8.60;99.90
53282;DHT22;39167;52.794;6.892;2022-12-24T06:05:30;8.60;99.90
53282;DHT22;39167;52.794;6.892;2022-12-24T06:07:55;8.50;99.90
53282;DHT22;39167;52.794;6.892;2022-12-24T06:10:21;8.60;99.90
53282;DHT22;39167;52.794;6.892;2022-12-24T06:12:47;8.60;99.90
53282;DHT22;39167;52.794;6.892;2022-12-24T06:15:13;8.60;99.90
53282;DHT22;39167;52.794;6.892;2022-12-24T06:17:38;8.60;99.90
53282;DHT22;39167;52.794;6.892;2022-12-24T06:20:05;8.50;99.90
53282;DHT22;39167;52.794;6.892;2022-12-24T06:22:31;8.50;99.90
53282;DHT22;39167;52.794;6.892;2022-12-24T06:24:56;8.50;99.90
53282;DHT22;39167;52.794;6.892;2022-12-24T06:27:22;8.50;99.90
53282;DHT22;39167;52.794;6.892;2022-12-24T06:29:48;8.50;99.90
53282;DHT22;39167;52.794;6.892;2022-12-24T06:32:14;8.50;99.90
53282;DHT22;39167;52.794;6.892;2022-12-24T06:34:39;8.50;99.90
53282;DHT22;39167;52.794;6.892;2022-12-24T06:37:05;8.50;99.90
53282;DHT22;39167;52.794;6.892;2022-12-24T06:39:31;8.50;99.90
53282;DHT22;39167;52.794;6.892;2022-12-24T06:41:56;8.50;99.90
53282;DHT22;39167;52.794;6.892;2022-12-24T06:44:22;8.50;99.90
53282;DHT22;39167;52.794;6.892;2022-12-24T06:46:48;8.50;99.90
53282;DHT22;39167;52.794;6.892;2022-12-24T06:49:14;8.50;99.90
53282;DHT22;39167;52.794;6.892;2022-12-24T06:51:39;8.50;99.90
53282;DHT22;39167;52.794;6.892;2022-12-24T06:54:06;8.50;99.90
53282;DHT22;39167;52.794;6.892;2022-12-24T06:56:31;8.50;99.90
53282;DHT22;39167;52.794;6.892;2022-12-24T06:58:57;8.50;99.90
53282;DHT22;39167;52.794;6.892;2022-12-24T07:01:23;8.50;99.90
53282;DHT22;39167;52.794;6.892;2022-12-24T07:03:49;8.50;99.90
53282;DHT22;39167;52.794;6.892;2022-12-24T07:06:18;8.50;99.90
53282;DHT22;39167;52.794;6.892;2022-12-24T07:08:44;8.50;99.90
53282;DHT22;39167;52.794;6.892;2022-12-24T07:11:10;8.50;99.90
53282;DHT22;39167;52.794;6.892;2022-12-24T07:13:35;8.50;99.90
53282;DHT22;39167;52.794;6.892;2022-12-24T07:16:02;8.40;99.90
53282;DHT22;39167;52.794;6.892;2022-12-24T07:18:29;8.40;99.90
53282;DHT22;39167;52.794;6.892;2022-12-24T07:20:55;8.40;99.90
53282;DHT22;39167;52.794;6.892;2022-12-24T07:23:21;8.40;99.90
53282;DHT22;39167;52.794;6.892;2022-12-24T07:25:46;8.40;99.90
53282;DHT22;39167;52.794;6.892;2022-12-24T07:28:12;8.40;99.90
53282;DHT22;39167;52.794;6.892;2022-12-24T07:30:38;8.40;99.90
53282;DHT22;39167;52.794;6.892;2022-12-24T07:33:03;8.40;99.90
53282;DHT22;39167;52.794;6.892;2022-12-24T07:35:29;8.40;99.90
53282;DHT22;39167;52.794;6.892;2022-12-24T07:37:55;8.40;99.90
53282;DHT22;39167;52.794;6.892;2022-12-24T07:40:21;8.40;99.90
53282;DHT22;39167;52.794;6.892;2022-12-24T07:42:46;8.30;99.90
53282;DHT22;39167;52.794;6.892;2022-12-24T07:45:12;8.30;99.90
53282;DHT22;39167;52.794;6.892;2022-12-24T07:47:37;8.30;99.90
53282;DHT22;39167;52.794;6.892;2022-12-24T07:50:04;8.30;99.90
53282;DHT22;39167;52.794;6.892;2022-12-24T07:52:30;8.30;99.90
53282;DHT22;39167;52.794;6.892;2022-12-24T07:54:56;8.30;99.90
53282;DHT22;39167;52.794;6.892;2022-12-24T07:57:21;8.30;99.90
53282;DHT22;39167;52.794;6.892;2022-12-24T07:59:47;8.30;99.90
53282;DHT22;39167;52.794;6.892;2022-12-24T08:02:13;8.30;99.90
53282;DHT22;39167;52.794;6.892;2022-12-24T08:04:38;8.30;99.90
53282;DHT22;39167;52.794;6.892;2022-12-24T08:07:06;8.30;99.90
53282;DHT22;39167;52.794;6.892;2022-12-24T08:09:35;8.30;99.90
53282;DHT22;39167;52.794;6.892;2022-12-24T08:12:02;8.30;99.90
53282;DHT22;39167;52.794;6.892;2022-12-24T08:14:29;8.30;99.90
53282;DHT22;39167;52.794;6.892;2022-12-24T08:16:55;8.30;99.90
53282;DHT22;39167;52.794;6.892;2022-12-24T08:19:21;8.30;99.90
53282;DHT22;39167;52.794;6.892;2022-12-24T08:21:47;8.30;99.90
53282;DHT22;39167;52.794;6.892;2022-12-24T08:24:13;8.20;99.90
53282;DHT22;39167;52.794;6.892;2022-12-24T08:26:39;8.30;99.90
53282;DHT22;39167;52.794;6.892;2022-12-24T08:29:05;8.30;99.90
53282;DHT22;39167;52.794;6.892;2022-12-24T08:31:31;8.30;99.90
53282;DHT22;39167;52.794;6.892;2022-12-24T08:34:02;8.30;99.90
53282;DHT22;39167;52.794;6.892;2022-12-24T08:36:28;8.30;99.90
53282;DHT22;39167;52.794;6.892;2022-12-24T08:38:54;8.30;99.90
53282;DHT22;39167;52.794;6.892;2022-12-24T08:41:19;8.30;99.90
53282;DHT22;39167;52.794;6.892;2022-12-24T08:43:45;8.30;99.90
53282;DHT22;39167;52.794;6.892;2022-12-24T08:46:11;8.40;99.90
53282;DHT22;39167;52.794;6.892;2022-12-24T08:48:36;8.40;99.90
53282;DHT22;39167;52.794;6.892;2022-12-24T08:51:09;8.40;99.90
53282;DHT22;39167;52.794;6.892;2022-12-24T08:53:36;8.40;99.90
53282;DHT22;39167;52.794;6.892;2022-12-24T08:56:07;8.40;99.90
53282;DHT22;39167;52.794;6.892;2022-12-24T08:58:34;8.50;99.90
53282;DHT22;39167;52.794;6.892;2022-12-24T09:01:08;8.50;99.90
53282;DHT22;39167;52.794;6.892;2022-12-24T09:03:34;8.50;99.90
53282;DHT22;39167;52.794;6.892;2022-12-24T09:06:02;8.50;99.90
53282;DHT22;39167;52.794;6.892;2022-12-24T09:08:28;8.50;99.90
53282;DHT22;39167;52.794;6.892;2022-12-24T09:10:54;8.50;99.90
53282;DHT22;39167;52.794;6.892;2022-12-24T09:13:19;8.60;99.90
53282;DHT22;39167;52.794;6.892;2022-12-24T09:15:53;8.60;99.90
53282;DHT22;39167;52.794;6.892;2022-12-24T09:18:18;8.60;99.90
53282;DHT22;39167;52.794;6.892;2022-12-24T09:20:44;8.60;99.90
53282;DHT22;39167;52.794;6.892;2022-12-24T09:23:10;8.60;99.90
53282;DHT22;39167;52.794;6.892;2022-12-24T09:25:43;8.60;99.90
53282;DHT22;39167;52.794;6.892;2022-12-24T09:28:09;8.60;99.90
53282;DHT22;39167;52.794;6.892;2022-12-24T09:30:36;8.60;99.90
53282;DHT22;39167;52.794;6.892;2022-12-24T09:33:01;8.70;99.90
53282;DHT22;39167;52.794;6.892;2022-12-24T09:35:27;8.70;99.90
53282;DHT22;39167;52.794;6.892;2022-12-24T09:37:53;8.70;99.90
53282;DHT22;39167;52.794;6.892;2022-12-24T09:40:39;8.70;99.90
53282;DHT22;39167;52.794;6.892;2022-12-24T09:43:17;8.80;99.90
53282;DHT22;39167;52.794;6.892;2022-12-24T09:48:39;8.80;99.90
53282;DHT22;39167;52.794;6.892;2022-12-24T09:51:15;8.80;99.90
53282;DHT22;39167;52.794;6.892;2022-12-24T09:53:50;8.90;99.90
53282;DHT22;39167;52.794;6.892;2022-12-24T09:56:23;8.90;99.90
53282;DHT22;39167;52.794;6.892;2022-12-24T09:58:55;8.90;99.90
53282;DHT22;39167;52.794;6.892;2022-12-24T10:01:22;8.90;99.90
53282;DHT22;39167;52.794;6.892;2022-12-24T10:03:47;8.90;99.90
53282;DHT22;39167;52.794;6.892;2022-12-24T10:06:20;9.00;99.90
53282;DHT22;39167;52.794;6.892;2022-12-24T10:09:02;9.00;99.90
53282;DHT22;39167;52.794;6.892;2022-12-24T10:11:55;9.20;99.90
53282;DHT22;39167;52.794;6.892;2022-12-24T10:17:22;9.00;99.90
53282;DHT22;39167;52.794;6.892;2022-12-24T10:28:37;8.70;99.90
53282;DHT22;39167;52.794;6.892;2022-12-24T10:31:07;9.00;99.90
53282;DHT22;39167;52.794;6.892;2022-12-24T10:33:43;9.00;99.90
53282;DHT22;39167;52.794;6.892;2022-12-24T10:36:16;9.00;99.90
53282;DHT22;39167;52.794;6.892;2022-12-24T10:38:43;9.00;99.90
53282;DHT22;39167;52.794;6.892;2022-12-24T10:41:10;9.00;99.90
53282;DHT22;39167;52.794;6.892;2022-12-24T10:43:40;9.00;99.90
53282;DHT22;39167;52.794;6.892;2022-12-24T10:46:26;9.00;99.90
53282;DHT22;39167;52.794;6.892;2022-12-24T10:49:51;9.00;99.90
53282;DHT22;39167;52.794;6.892;2022-12-24T10:52:14;9.00;99.90
53282;DHT22;39167;52.794;6.892;2022-12-24T10:57:31;9.00;99.90
53282;DHT22;39167;52.794;6.892;2022-12-24T10:59:57;9.00;99.90
53282;DHT22;39167;52.794;6.892;2022-12-24T11:02:37;9.00;99.90
53282;DHT22;39167;52.794;6.892;2022-12-24T11:05:06;9.00;99.90
53282;DHT22;39167;52.794;6.892;2022-12-24T11:07:32;9.00;99.90
53282;DHT22;39167;52.794;6.892;2022-12-24T11:10:01;9.00;99.90
53282;DHT22;39167;52.794;6.892;2022-12-24T11:12:31;9.00;99.90
53282;DHT22;39167;52.794;6.892;2022-12-24T11:17:32;9.10;99.90
53282;DHT22;39167;52.794;6.892;2022-12-24T11:19:58;9.10;99.90
53282;DHT22;39167;52.794;6.892;2022-12-24T11:22:30;8.70;99.90
53282;DHT22;39167;52.794;6.892;2022-12-24T11:27:38;9.20;99.90
53282;DHT22;39167;52.794;6.892;2022-12-24T11:30:31;9.20;99.90
53282;DHT22;39167;52.794;6.892;2022-12-24T11:35:25;9.20;99.90
53282;DHT22;39167;52.794;6.892;2022-12-24T11:40:41;9.20;99.90
53282;DHT22;39167;52.794;6.892;2022-12-24T11:43:14;9.30;99.90
53282;DHT22;39167;52.794;6.892;2022-12-24T11:45:53;9.30;99.90
53282;DHT22;39167;52.794;6.892;2022-12-24T11:48:26;9.30;99.90
53282;DHT22;39167;52.794;6.892;2022-12-24T11:51:19;9.30;99.90
53282;DHT22;39167;52.794;6.892;2022-12-24T11:54:00;9.30;99.90
53282;DHT22;39167;52.794;6.892;2022-12-24T11:56:39;9.30;99.90
53282;DHT22;39167;52.794;6.892;2022-12-24T11:59:16;9.30;99.90
53282;DHT22;39167;52.794;6.892;2022-12-24T12:01:57;9.30;99.90
53282;DHT22;39167;52.794;6.892;2022-12-24T12:04:31;9.30;99.90
53282;DHT22;39167;52.794;6.892;2022-12-24T12:07:03;9.30;99.90
53282;DHT22;39167;52.794;6.892;2022-12-24T12:09:36;9.30;99.90
53282;DHT22;39167;52.794;6.892;2022-12-24T12:12:12;9.30;99.90
53282;DHT22;39167;52.794;6.892;2022-12-24T12:14:44;9.30;99.90
53282;DHT22;39167;52.794;6.892;2022-12-24T12:17:32;9.30;99.90
53282;DHT22;39167;52.794;6.892;2022-12-24T12:25:27;9.40;99.90
53282;DHT22;39167;52.794;6.892;2022-12-24T12:27:55;9.40;99.90
53282;DHT22;39167;52.794;6.892;2022-12-24T12:30:23;9.40;99.90
53282;DHT22;39167;52.794;6.892;2022-12-24T12:35:48;9.40;99.90
53282;DHT22;39167;52.794;6.892;2022-12-24T12:38:19;9.40;99.90
53282;DHT22;39167;52.794;6.892;2022-12-24T12:41:17;9.40;99.90
53282;DHT22;39167;52.794;6.892;2022-12-24T12:57:41;9.40;99.90
53282;DHT22;39167;52.794;6.892;2022-12-24T13:00:15;9.50;99.90
53282;DHT22;39167;52.794;6.892;2022-12-24T13:03:23;9.40;99.90
53282;DHT22;39167;52.794;6.892;2022-12-24T13:06:28;9.50;99.90
53282;DHT22;39167;52.794;6.892;2022-12-24T13:12:08;9.50;99.90
53282;DHT22;39167;52.794;6.892;2022-12-24T13:20:27;9.60;99.90
53282;DHT22;39167;52.794;6.892;2022-12-24T13:25:34;9.60;99.90
53282;DHT22;39167;52.794;6.892;2022-12-24T13:30:46;9.60;99.90
53282;DHT22;39167;52.794;6.892;2022-12-24T13:38:32;9.60;99.90
53282;DHT22;39167;52.794;6.892;2022-12-24T13:44:23;9.50;99.90
53282;DHT22;39167;52.794;6.892;2022-12-24T13:49:28;9.50;99.90
53282;DHT22;39167;52.794;6.892;2022-12-24T14:02:52;9.40;99.90
53282;DHT22;39167;52.794;6.892;2022-12-24T14:08:26;9.40;99.90
53282;DHT22;39167;52.794;6.892;2022-12-24T14:16:15;9.30;99.90
53282;DHT22;39167;52.794;6.892;2022-12-24T14:19:09;9.30;99.90
53282;DHT22;39167;52.794;6.892;2022-12-24T14:24:51;9.30;99.90
53282;DHT22;39167;52.794;6.892;2022-12-24T14:27:20;9.20;99.90
53282;DHT22;39167;52.794;6.892;2022-12-24T14:30:06;9.20;99.90
53282;DHT22;39167;52.794;6.892;2022-12-24T14:32:37;9.20;99.90
53282;DHT22;39167;52.794;6.892;2022-12-24T14:37:31;9.10;99.90
53282;DHT22;39167;52.794;6.892;2022-12-24T14:39:57;9.10;99.90
53282;DHT22;39167;52.794;6.892;2022-12-24T14:56:33;9.00;99.90
53282;DHT22;39167;52.794;6.892;2022-12-24T14:59:00;9.00;99.90
53282;DHT22;39167;52.794;6.892;2022-12-24T15:01:38;9.00;99.90
53282;DHT22;39167;52.794;6.892;2022-12-24T15:06:40;9.00;99.90
53282;DHT22;39167;52.794;6.892;2022-12-24T15:09:19;9.00;99.90
53282;DHT22;39167;52.794;6.892;2022-12-24T15:11:47;9.00;99.90
53282;DHT22;39167;52.794;6.892;2022-12-24T15:14:15;9.00;99.90
53282;DHT22;39167;52.794;6.892;2022-12-24T15:16:42;8.90;99.90
53282;DHT22;39167;52.794;6.892;2022-12-24T15:19:23;9.00;99.90
53282;DHT22;39167;52.794;6.892;2022-12-24T15:21:50;8.90;99.90
53282;DHT22;39167;52.794;6.892;2022-12-24T15:24:26;9.00;99.90
53282;DHT22;39167;52.794;6.892;2022-12-24T15:26:54;9.00;99.90
53282;DHT22;39167;52.794;6.892;2022-12-24T15:29:25;9.00;99.90
53282;DHT22;39167;52.794;6.892;2022-12-24T15:31:56;8.90;99.90
53282;DHT22;39167;52.794;6.892;2022-12-24T15:34:40;8.90;99.90
53282;DHT22;39167;52.794;6.892;2022-12-24T15:37:26;8.90;99.90
53282;DHT22;39167;52.794;6.892;2022-12-24T15:40:01;8.90;99.90
53282;DHT22;39167;52.794;6.892;2022-12-24T15:42:29;8.90;99.90
53282;DHT22;39167;52.794;6.892;2022-12-24T15:47:35;8.90;99.90
53282;DHT22;39167;52.794;6.892;2022-12-24T15:52:30;8.80;99.90
53282;DHT22;39167;52.794;6.892;2022-12-24T15:54:56;8.80;99.90
53282;DHT22;39167;52.794;6.892;2022-12-24T15:57:30;8.70;99.90
53282;DHT22;39167;52.794;6.892;2022-12-24T15:59:58;8.70;99.90
53282;DHT22;39167;52.794;6.892;2022-12-24T16:02:31;8.70;99.90
53282;DHT22;39167;52.794;6.892;2022-12-24T16:08:04;8.60;99.90
53282;DHT22;39167;52.794;6.892;2022-12-24T16:10:36;8.60;99.90
53282;DHT22;39167;52.794;6.892;2022-12-24T16:16:03;8.60;99.90
53282;DHT22;39167;52.794;6.892;2022-12-24T16:18:34;8.60;99.90
53282;DHT22;39167;52.794;6.892;2022-12-24T16:21:02;8.50;99.90
53282;DHT22;39167;52.794;6.892;2022-12-24T16:23:38;8.50;99.90
53282;DHT22;39167;52.794;6.892;2022-12-24T16:26:09;8.50;99.90
53282;DHT22;39167;52.794;6.892;2022-12-24T16:28:35;8.50;99.90
53282;DHT22;39167;52.794;6.892;2022-12-24T16:31:01;8.40;99.90
53282;DHT22;39167;52.794;6.892;2022-12-24T16:33:27;8.40;99.90
53282;DHT22;39167;52.794;6.892;2022-12-24T16:35:54;8.40;99.90
53282;DHT22;39167;52.794;6.892;2022-12-24T16:38:20;8.30;99.90
53282;DHT22;39167;52.794;6.892;2022-12-24T16:40:46;8.30;99.90
53282;DHT22;39167;52.794;6.892;2022-12-24T16:43:12;8.30;99.90
53282;DHT22;39167;52.794;6.892;2022-12-24T16:46:01;8.30;99.90
53282;DHT22;39167;52.794;6.892;2022-12-24T16:48:28;8.30;99.90
53282;DHT22;39167;52.794;6.892;2022-12-24T16:50:54;8.30;99.90
53282;DHT22;39167;52.794;6.892;2022-12-24T16:53:21;8.30;99.90
53282;DHT22;39167;52.794;6.892;2022-12-24T16:55:47;8.30;99.90
53282;DHT22;39167;52.794;6.892;2022-12-24T16:58:16;8.20;99.90
53282;DHT22;39167;52.794;6.892;2022-12-24T17:00:43;8.20;99.90
53282;DHT22;39167;52.794;6.892;2022-12-24T17:03:09;8.20;99.90
53282;DHT22;39167;52.794;6.892;2022-12-24T17:05:41;8.20;99.90
53282;DHT22;39167;52.794;6.892;2022-12-24T17:08:07;8.20;99.90
53282;DHT22;39167;52.794;6.892;2022-12-24T17:10:33;8.10;99.90
53282;DHT22;39167;52.794;6.892;2022-12-24T17:12:59;8.10;99.90
53282;DHT22;39167;52.794;6.892;2022-12-24T17:15:25;8.10;99.90
53282;DHT22;39167;52.794;6.892;2022-12-24T17:17:51;8.00;99.90
53282;DHT22;39167;52.794;6.892;2022-12-24T17:20:16;8.00;99.90
53282;DHT22;39167;52.794;6.892;2022-12-24T17:22:42;8.00;99.90
53282;DHT22;39167;52.794;6.892;2022-12-24T17:25:09;8.00;99.90
53282;DHT22;39167;52.794;6.892;2022-12-24T17:27:36;8.00;99.90
53282;DHT22;39167;52.794;6.892;2022-12-24T17:30:02;8.00;99.90
53282;DHT22;39167;52.794;6.892;2022-12-24T17:32:28;7.90;99.90
53282;DHT22;39167;52.794;6.892;2022-12-24T17:34:53;7.90;99.90
53282;DHT22;39167;52.794;6.892;2022-12-24T17:37:19;7.80;99.90
53282;DHT22;39167;52.794;6.892;2022-12-24T17:39:45;7.80;99.90
53282;DHT22;39167;52.794;6.892;2022-12-24T17:42:11;7.80;99.90
53282;DHT22;39167;52.794;6.892;2022-12-24T17:44:36;7.80;99.90
53282;DHT22;39167;52.794;6.892;2022-12-24T17:47:03;7.80;99.90
53282;DHT22;39167;52.794;6.892;2022-12-24T17:49:30;7.70;99.90
53282;DHT22;39167;52.794;6.892;2022-12-24T17:51:56;7.70;99.90
53282;DHT22;39167;52.794;6.892;2022-12-24T17:54:22;7.70;99.90
53282;DHT22;39167;52.794;6.892;2022-12-24T17:56:47;7.60;99.90
53282;DHT22;39167;52.794;6.892;2022-12-24T17:59:13;7.60;99.90
53282;DHT22;39167;52.794;6.892;2022-12-24T18:01:39;7.60;99.90
53282;DHT22;39167;52.794;6.892;2022-12-24T18:04:05;7.60;99.90
53282;DHT22;39167;52.794;6.892;2022-12-24T18:06:31;7.60;99.90
53282;DHT22;39167;52.794;6.892;2022-12-24T18:08:56;7.60;99.90
53282;DHT22;39167;52.794;6.892;2022-12-24T18:11:27;7.50;99.90
53282;DHT22;39167;52.794;6.892;2022-12-24T18:13:54;7.50;99.90
53282;DHT22;39167;52.794;6.892;2022-12-24T18:16:30;7.50;99.90
53282;DHT22;39167;52.794;6.892;2022-12-24T18:18:56;7.40;99.90
53282;DHT22;39167;52.794;6.892;2022-12-24T18:21:24;7.40;99.90
53282;DHT22;39167;52.794;6.892;2022-12-24T18:23:51;7.40;99.90
53282;DHT22;39167;52.794;6.892;2022-12-24T18:26:18;7.30;99.90
53282;DHT22;39167;52.794;6.892;2022-12-24T18:28:45;7.30;99.90